National Weather Service
For a better view on National Weather Service, Update Your Browser.
Current Weather
  • 84o F Feels Like 96o F
  • Rainfall Accumulated 0 mm
  • Wind Speed 5.1 knots
  • Wind Direction E
  • Humidity 87%
  • Pressure 1012.9 millibars
Today's Forecast As of 8 Aug 2022 4:38 PM
Partly Cloudy
Evening
Partly Cloudy
Min 77o F | Max 87o F
  • Partly Cloudy
    Night
    Partly Cloudy
    Min 77o F | Max 87o F
06:05 18:56
  • East to northeast at 10 to 15 knots.

  • Slight to moderate with a wave height of 2 to 4 feet.

Aviation Forecast

Grand Cayman: Terminal Aerodrome Forecast

Last updated at 08 Aug 2022 06:35 PM

TAF MWCR 081700Z 0818/0918 09012KT 9999 SCT018
TEMPO 0819/0822 9000 SHRA SCT016CB
BECMG 0906/0908 7000 TSRA SCT012CB SCT035

Grand Cayman: Metar Reports

Last updated at 08 Aug 2022 05:00 PM

Aug 08, 2022 - 05:00 PM EDT / 2022.08.08 2100 UTC
Wind: Calm:0
Visibility: greater than 7 mile(s):0
Sky conditions: partly cloudy
Weather: showers in the vicinity
Temperature: 84 F (29 C)
Dew Point: 80 F (27 C)
Relative Humidity: 88%
Pressure (altimeter): 29.88 in. Hg (1012 hPa)
ob: MWCR 082100Z 00000KT 9999 VCSH SCT016 29/27 Q1012 RERA

Cayman Brac: Terminal Aerodrome Forecast

Last updated at 08 Aug 2022 06:24 PM

TAF TAF MWCB 081700Z 0818/0918 09012KT 9999 SCT018
TEMPO 0819/0822 9000 SHRA SCT016CB
BECMG 0906/0908 7000 TSRA SCT012CB SCT035

Cayman Brac: Metar Reports

Last updated at 08 Aug 2022 05:00 PM

Aug 08, 2022 - 05:00 PM EDT / 2022.08.08 2100 UTC
Wind: from the E (090 degrees) at 14 MPH (12 KT):0
Visibility: greater than 7 mile(s):0
Sky conditions: partly cloudy
Weather: Towering cumulus clouds observed
Temperature: 87 F (31 C)
Heat index: 97.5 F (36.4 C):1
Dew Point: 77 F (25 C)
Relative Humidity: 70%
Pressure (altimeter): 29.91 in. Hg (1013 hPa)
ob: MWCB 082100Z 09012KT 9999 SCT018TCU 31/25 Q1013

Turbulence

Turbulence

Wind SHEAR

Wind SHEAR